Felix-Klein-Gymnasium, Gttingen, 150m NN
Wetterdaten: aktuell Samstag, 08.08.2020 08:15
Datum Zeit Temp. A. Feuchte A. Luftdruck Regen Wind Richtung Richtung Sonnenschein Taupunkt Windchill Windben
08.08.2020 08:15 18,9 C 74 % 1018,2 hPa 0,0 mm 0,0 km/h (0 Bft) S 173 15 min 14,2 C 18,9 C 0,0 km/h (0 Bft)
08.08.2020 08:00 18,1 C 77 % 1018,1 hPa 0,0 mm 0,0 km/h (0 Bft) S 173 15 min 14,0 C 18,1 C 0,0 km/h (0 Bft)
08.08.2020 07:45 17,4 C 79 % 1018,1 hPa 0,0 mm 0,0 km/h (0 Bft) S 173 15 min 13,7 C 17,4 C 0,0 km/h (0 Bft)
08.08.2020 07:30 16,7 C 82 % 1018,1 hPa 0,0 mm 0,0 km/h (0 Bft) S 172 0 min 13,6 C 16,7 C 0,0 km/h (0 Bft)
08.08.2020 07:15 16,1 C 83 % 1018,1 hPa 0,0 mm 0,0 km/h (0 Bft) S 173 0 min 13,2 C 16,1 C 0,0 km/h (0 Bft)
08.08.2020 07:00 15,7 C 84 % 1018,0 hPa 0,0 mm 0,0 km/h (0 Bft) S 173 0 min 13,0 C 15,7 C 0,0 km/h (0 Bft)
08.08.2020 06:45 15,5 C 85 % 1017,9 hPa 0,0 mm 0,0 km/h (0 Bft) S 182 0 min 13,0 C 15,5 C 0,0 km/h (0 Bft)
08.08.2020 06:30 15,3 C 86 % 1017,9 hPa 0,0 mm 0,0 km/h (0 Bft) S 182 0 min 13,0 C 15,3 C 0,0 km/h (0 Bft)
08.08.2020 06:15 15,3 C 86 % 1017,8 hPa 0,0 mm 0,0 km/h (0 Bft) S 182 0 min 13,0 C 15,3 C 0,0 km/h (0 Bft)
08.08.2020 06:00 15,3 C 86 % 1017,7 hPa 0,0 mm 0,0 km/h (0 Bft) S 182 0 min 13,0 C 15,3 C 0,0 km/h (0 Bft)
08.08.2020 05:45 15,5 C 86 % 1017,7 hPa 0,0 mm 0,0 km/h (0 Bft) S-SO 153 0 min 13,2 C 15,5 C 1,6 km/h (1 Bft)
08.08.2020 05:30 15,8 C 84 % 1017,6 hPa 0,0 mm 0,0 km/h (0 Bft) S-SO 154 0 min 13,1 C 15,8 C 0,0 km/h (0 Bft)
08.08.2020 05:15 16,1 C 83 % 1017,5 hPa 0,0 mm 0,0 km/h (0 Bft) S-SO 154 0 min 13,2 C 16,1 C 0,0 km/h (0 Bft)
08.08.2020 05:00 16,2 C 83 % 1017,4 hPa 0,0 mm 0,0 km/h (0 Bft) S-SO 154 0 min 13,3 C 16,2 C 0,0 km/h (0 Bft)
08.08.2020 04:45 16,3 C 83 % 1017,4 hPa 0,0 mm 0,0 km/h (0 Bft) S-SO 154 0 min 13,4 C 16,3 C 0,0 km/h (0 Bft)
08.08.2020 04:30 16,4 C 83 % 1017,4 hPa 0,0 mm 0,0 km/h (0 Bft) S-SO 154 0 min 13,5 C 16,4 C 0,0 km/h (0 Bft)
08.08.2020 04:15 16,5 C 82 % 1017,4 hPa 0,0 mm 0,0 km/h (0 Bft) S-SO 154 0 min 13,4 C 16,5 C 0,0 km/h (0 Bft)
08.08.2020 04:00 16,8 C 80 % 1017,4 hPa 0,0 mm 0,0 km/h (0 Bft) S-SO 154 0 min 13,3 C 16,8 C 0,0 km/h (0 Bft)
08.08.2020 03:45 17,0 C 80 % 1017,4 hPa 0,0 mm 0,0 km/h (0 Bft) S-SO 154 0 min 13,5 C 17,0 C 0,0 km/h (0 Bft)
08.08.2020 03:30 17,2 C 80 % 1017,4 hPa 0,0 mm 0,0 km/h (0 Bft) S-SO 155 0 min 13,7 C 17,2 C 0,0 km/h (0 Bft)
08.08.2020 03:15 17,4 C 79 % 1017,4 hPa 0,0 mm 0,0 km/h (0 Bft) S-SO 155 0 min 13,7 C 17,4 C 0,0 km/h (0 Bft)
08.08.2020 03:00 17,6 C 79 % 1017,4 hPa 0,0 mm 0,0 km/h (0 Bft) S-SO 155 0 min 13,9 C 17,6 C 0,0 km/h (0 Bft)
08.08.2020 02:45 17,8 C 78 % 1017,4 hPa 0,0 mm 0,0 km/h (0 Bft) S-SO 155 0 min 13,9 C 17,8 C 0,0 km/h (0 Bft)
08.08.2020 02:30 18,1 C 79 % 1017,3 hPa 0,0 mm 0,0 km/h (0 Bft) S-SO 155 0 min 14,4 C 18,1 C 0,0 km/h (0 Bft)
08.08.2020 02:15 18,3 C 76 % 1017,4 hPa 0,0 mm 0,0 km/h (0 Bft) S-SO 155 0 min 14,0 C 18,3 C 0,0 km/h (0 Bft)
08.08.2020 02:00 18,5 C 75 % 1017,5 hPa 0,0 mm 0,0 km/h (0 Bft) S-SO 155 0 min 14,0 C 18,5 C 0,0 km/h (0 Bft)
08.08.2020 01:45 18,7 C 75 % 1017,6 hPa 0,0 mm 0,0 km/h (0 Bft) S-SO 155 0 min 14,2 C 18,7 C 0,0 km/h (0 Bft)
08.08.2020 01:30 19,0 C 74 % 1017,6 hPa 0,0 mm 0,0 km/h (0 Bft) S-SO 155 0 min 14,3 C 19,0 C 0,0 km/h (0 Bft)
08.08.2020 01:15 19,1 C 74 % 1017,5 hPa 0,0 mm 0,0 km/h (0 Bft) S-SO 155 0 min 14,4 C 19,1 C 0,0 km/h (0 Bft)
08.08.2020 01:00 19,2 C 73 % 1017,5 hPa 0,0 mm 0,0 km/h (0 Bft) S-SO 155 0 min 14,2 C 19,2 C 0,0 km/h (0 Bft)
08.08.2020 00:45 19,7 C 72 % 1017,5 hPa 0,0 mm 0,0 km/h (0 Bft) S-SO 155 0 min 14,5 C 19,7 C 0,0 km/h (0 Bft)
08.08.2020 00:30 20,1 C 70 % 1017,5 hPa 0,0 mm 0,0 km/h (0 Bft) S-SO 155 0 min 14,5 C 20,1 C 0,0 km/h (0 Bft)
08.08.2020 00:15 20,5 C 69 % 1017,4 hPa 0,0 mm 0,0 km/h (0 Bft) S-SO 154 0 min 14,6 C 20,5 C 0,0 km/h (0 Bft)
08.08.2020 00:00 21,1 C 67 % 1017,4 hPa 0,0 mm 0,0 km/h (0 Bft) S-SO 154 0 min 14,7 C 21,1 C 0,0 km/h (0 Bft)
07.08.2020 23:45 21,4 C 66 % 1017,4 hPa 0,0 mm 0,0 km/h (0 Bft) N 0 0 min 14,8 C 21,4 C 0,0 km/h (0 Bft)
07.08.2020 23:30 21,9 C 64 % 1017,4 hPa 0,0 mm 0,0 km/h (0 Bft) N 0 0 min 14,8 C 21,9 C 0,0 km/h (0 Bft)
07.08.2020 23:15 22,3 C 63 % 1017,4 hPa 0,0 mm 0,0 km/h (0 Bft) O-SO 112 0 min 14,9 C 22,3 C 3,2 km/h (1 Bft)
07.08.2020 23:00 23,4 C 59 % 1017,3 hPa 0,0 mm 0,0 km/h (0 Bft) O-NO 71 0 min 14,9 C 23,4 C 0,0 km/h (0 Bft)
07.08.2020 22:45 24,1 C 59 % 1017,3 hPa 0,0 mm 0,0 km/h (0 Bft) O-NO 70 0 min 15,6 C 24,1 C 1,6 km/h (1 Bft)
07.08.2020 22:30 25,3 C 54 % 1017,2 hPa 0,0 mm 0,0 km/h (0 Bft) N-NO 31 0 min 15,3 C 25,3 C 0,0 km/h (0 Bft)
07.08.2020 22:15 25,8 C 50 % 1017,2 hPa 0,0 mm 0,0 km/h (0 Bft) N-NO 31 0 min 14,6 C 25,8 C 0,0 km/h (0 Bft)
07.08.2020 22:00 26,9 C 51 % 1017,2 hPa 0,0 mm 0,0 km/h (0 Bft) N-NO 31 0 min 15,9 C 26,9 C 0,0 km/h (0 Bft)
07.08.2020 21:45 27,3 C 46 % 1017,1 hPa 0,0 mm 0,0 km/h (0 Bft) N-NO 30 0 min 14,6 C 27,3 C 0,0 km/h (0 Bft)
07.08.2020 21:30 27,7 C 45 % 1016,9 hPa 0,0 mm 0,0 km/h (0 Bft) N-NO 31 0 min 14,7 C 27,7 C 1,6 km/h (1 Bft)
07.08.2020 21:15 28,3 C 41 % 1016,8 hPa 0,0 mm 0,1 km/h (0 Bft) NO 49 0 min 13,8 C 28,3 C 3,2 km/h (1 Bft)
07.08.2020 21:00 29,1 C 41 % 1016,6 hPa 0,0 mm 0,0 km/h (0 Bft) O-NO 69 0 min 14,5 C 29,1 C 0,0 km/h (0 Bft)
07.08.2020 20:45 29,7 C 39 % 1016,5 hPa 0,0 mm 0,0 km/h (0 Bft) O-NO 69 15 min 14,2 C 29,7 C 1,6 km/h (1 Bft)
07.08.2020 20:30 30,3 C 37 % 1016,5 hPa 0,0 mm 0,0 km/h (0 Bft) O-NO 69 0 min 14,0 C 30,3 C 0,0 km/h (0 Bft)
07.08.2020 20:15 30,7 C 36 % 1016,5 hPa 0,0 mm 0,3 km/h (0 Bft) O-NO 70 0 min 13,9 C 30,7 C 6,4 km/h (2 Bft)
07.08.2020 20:00 31,1 C 34 % 1016,5 hPa 0,0 mm 0,3 km/h (0 Bft) O-NO 71 0 min 13,4 C 31,1 C 8,0 km/h (2 Bft)
07.08.2020 19:45 31,1 C 33 % 1016,5 hPa 0,0 mm 0,8 km/h (0 Bft) O-NO 66 0 min 12,9 C 31,1 C 8,0 km/h (2 Bft)
07.08.2020 19:30 31,2 C 32 % 1016,5 hPa 0,0 mm 2,9 km/h (1 Bft) O-NO 65 15 min 12,5 C 31,2 C 11,3 km/h (2 Bft)
07.08.2020 19:15 31,4 C 31 % 1016,6 hPa 0,0 mm 2,8 km/h (1 Bft) O-NO 69 15 min 12,2 C 31,4 C 11,3 km/h (2 Bft)
07.08.2020 19:00 31,6 C 31 % 1016,6 hPa 0,0 mm 3,4 km/h (1 Bft) O 88 15 min 12,4 C 31,6 C 12,9 km/h (3 Bft)
07.08.2020 18:45 31,9 C 31 % 1016,7 hPa 0,0 mm 1,6 km/h (1 Bft) O 100 15 min 12,6 C 31,9 C 12,9 km/h (3 Bft)
07.08.2020 18:30 31,9 C 31 % 1016,8 hPa 0,0 mm 2,9 km/h (1 Bft) SO 128 15 min 12,6 C 31,9 C 14,5 km/h (3 Bft)
07.08.2020 18:15 32,4 C 30 % 1016,8 hPa 0,0 mm 1,3 km/h (1 Bft) NO 34 15 min 12,6 C 32,4 C 11,3 km/h (2 Bft)
07.08.2020 18:00 32,1 C 30 % 1016,9 hPa 0,0 mm 1,8 km/h (1 Bft) O 81 15 min 12,3 C 32,1 C 12,9 km/h (3 Bft)
07.08.2020 17:45 32,3 C 30 % 1016,9 hPa 0,0 mm 3,1 km/h (1 Bft) O-SO 111 15 min 12,5 C 32,3 C 14,5 km/h (3 Bft)
07.08.2020 17:30 32,3 C 30 % 1016,9 hPa 0,0 mm 3,2 km/h (1 Bft) O-NO 59 15 min 12,5 C 32,3 C 14,5 km/h (3 Bft)
07.08.2020 17:15 32,3 C 30 % 1017,0 hPa 0,0 mm 4,1 km/h (1 Bft) O-SO 108 15 min 12,5 C 32,3 C 16,1 km/h (3 Bft)
07.08.2020 17:00 33,0 C 28 % 1017,1 hPa 0,0 mm 1,3 km/h (1 Bft) SO 126 15 min 12,0 C 33,0 C 12,9 km/h (3 Bft)
07.08.2020 16:45 32,5 C 29 % 1017,1 hPa 0,0 mm 1,9 km/h (1 Bft) N-NW 338 15 min 12,1 C 32,5 C 8,0 km/h (2 Bft)
07.08.2020 16:30 32,7 C 29 % 1017,1 hPa 0,0 mm 0,5 km/h (0 Bft) O-NO 76 15 min 12,3 C 32,7 C 8,0 km/h (2 Bft)
07.08.2020 16:15 32,3 C 28 % 1017,2 hPa 0,0 mm 4,6 km/h (1 Bft) NW 311 15 min 11,4 C 32,3 C 12,9 km/h (3 Bft)
07.08.2020 16:00 31,9 C 29 % 1017,3 hPa 0,0 mm 2,5 km/h (1 Bft) W 277 15 min 11,6 C 31,9 C 11,3 km/h (2 Bft)
07.08.2020 15:45 31,4 C 29 % 1017,4 hPa 0,0 mm 3,7 km/h (1 Bft) N 5 15 min 11,2 C 31,4 C 16,1 km/h (3 Bft)
07.08.2020 15:30 31,9 C 28 % 1017,5 hPa 0,0 mm 4,5 km/h (1 Bft) O-NO 71 15 min 11,1 C 31,9 C 12,9 km/h (3 Bft)
07.08.2020 15:15 31,9 C 29 % 1017,5 hPa 0,0 mm 4,5 km/h (1 Bft) NW 311 15 min 11,6 C 31,9 C 12,9 km/h (3 Bft)
07.08.2020 15:00 32,8 C 29 % 1017,5 hPa 0,0 mm 1,3 km/h (1 Bft) N 360 15 min 12,4 C 32,8 C 8,0 km/h (2 Bft)
07.08.2020 14:45 32,7 C 30 % 1017,7 hPa 0,0 mm 1,3 km/h (1 Bft) NW 314 15 min 12,8 C 32,7 C 11,3 km/h (2 Bft)
07.08.2020 14:30 31,3 C 31 % 1017,8 hPa 0,0 mm 3,4 km/h (1 Bft) W-SW 254 15 min 12,1 C 31,3 C 14,5 km/h (3 Bft)
07.08.2020 14:15 31,4 C 32 % 1017,8 hPa 0,0 mm 5,6 km/h (1 Bft) W-NW 303 15 min 12,7 C 31,4 C 16,1 km/h (3 Bft)
07.08.2020 14:00 31,8 C 31 % 1017,9 hPa 0,0 mm 4,2 km/h (1 Bft) NW 311 15 min 12,6 C 31,8 C 11,3 km/h (2 Bft)
07.08.2020 13:45 33,4 C 29 % 1018,0 hPa 0,0 mm 1,8 km/h (1 Bft) S-SW 196 15 min 12,9 C 33,4 C 9,7 km/h (2 Bft)
07.08.2020 13:30 33,8 C 28 % 1018,0 hPa 0,0 mm 0,0 km/h (0 Bft) O-SO 112 15 min 12,7 C 33,8 C 1,6 km/h (1 Bft)
07.08.2020 13:15 32,6 C 30 % 1018,2 hPa 0,0 mm 0,1 km/h (0 Bft) S-SW 200 15 min 12,7 C 32,6 C 4,8 km/h (1 Bft)
07.08.2020 13:00 31,4 C 32 % 1018,4 hPa 0,0 mm 3,5 km/h (1 Bft) O 94 15 min 12,7 C 31,4 C 14,5 km/h (3 Bft)
07.08.2020 12:45 31,6 C 32 % 1018,5 hPa 0,0 mm 1,8 km/h (1 Bft) SO 134 15 min 12,9 C 31,6 C 12,9 km/h (3 Bft)
07.08.2020 12:30 31,1 C 35 % 1018,6 hPa 0,0 mm 0,4 km/h (0 Bft) W-NW 294 15 min 13,8 C 31,1 C 6,4 km/h (2 Bft)
07.08.2020 12:15 30,4 C 37 % 1018,5 hPa 0,0 mm 1,8 km/h (1 Bft) NW 319 15 min 14,0 C 30,4 C 9,7 km/h (2 Bft)
07.08.2020 12:00 29,6 C 39 % 1018,6 hPa 0,0 mm 1,7 km/h (1 Bft) O-NO 68 15 min 14,2 C 29,6 C 8,0 km/h (2 Bft)
07.08.2020 11:45 29,8 C 41 % 1018,7 hPa 0,0 mm 0,0 km/h (0 Bft) O 91 15 min 15,1 C 29,8 C 1,6 km/h (1 Bft)
07.08.2020 11:30 28,5 C 44 % 1018,9 hPa 0,0 mm 0,2 km/h (0 Bft) W-NW 296 15 min 15,0 C 28,5 C 4,8 km/h (1 Bft)
07.08.2020 11:15 27,2 C 47 % 1018,9 hPa 0,0 mm 1,0 km/h (0 Bft) W-NW 294 15 min 14,9 C 27,2 C 6,4 km/h (2 Bft)
07.08.2020 11:00 26,8 C 47 % 1019,1 hPa 0,0 mm 0,2 km/h (0 Bft) W-NW 303 15 min 14,5 C 26,8 C 4,8 km/h (1 Bft)
07.08.2020 10:45 26,1 C 48 % 1019,2 hPa 0,0 mm 0,2 km/h (0 Bft) W-NW 290 15 min 14,2 C 26,1 C 6,4 km/h (2 Bft)
07.08.2020 10:30 24,6 C 50 % 1019,2 hPa 0,0 mm 0,0 km/h (0 Bft) S 189 15 min 13,5 C 24,6 C 1,6 km/h (1 Bft)
07.08.2020 10:15 23,5 C 51 % 1019,3 hPa 0,0 mm 0,0 km/h (0 Bft) S 175 15 min 12,8 C 23,5 C 0,0 km/h (0 Bft)
07.08.2020 10:00 22,8 C 51 % 1019,4 hPa 0,0 mm 0,0 km/h (0 Bft) S 169 15 min 12,1 C 22,8 C 0,0 km/h (0 Bft)
07.08.2020 09:45 22,1 C 52 % 1019,5 hPa 0,0 mm 0,0 km/h (0 Bft) S 170 15 min 11,8 C 22,1 C 1,6 km/h (1 Bft)
07.08.2020 09:30 21,1 C 55 % 1019,5 hPa 0,0 mm 0,0 km/h (0 Bft) S-SO 150 15 min 11,7 C 21,1 C 0,0 km/h (0 Bft)
07.08.2020 09:15 20,3 C 57 % 1019,6 hPa 0,0 mm 0,0 km/h (0 Bft) S-SO 158 15 min 11,5 C 20,3 C 0,0 km/h (0 Bft)
07.08.2020 09:00 19,3 C 62 % 1019,7 hPa 0,0 mm 0,0 km/h (0 Bft) S-SO 159 15 min 11,8 C 19,3 C 1,6 km/h (1 Bft)
_ Min-Zeit 06:00 13:30 19:30 - 09:00 - - - 15:30 06:00 09:15
Minimum _ 15,3 C 28 % 1016,5 hPa - 0,0 km/h (0 Bft) - - - 11,1 C 15,3 C 0,0 km/h (0 Bft)
_ Max-Zeit 13:45 05:45 09:00 09:00 14:15 - - 09:00 22:00 13:30 14:15
Maximum _ 34,2 C 86 % 1019,7 hPa 0,0 mm 5,6 km/h
W-NW (1 Bft)
- - 15 min 15,9 C 33,8 C 16,1 km/h
W-NW (3 Bft)
Durchschnitt _ 24,4 C 54 % 1017,8 hPa #0,0 mm 0,8 km/h (0 Bft) O-NO - #45 min. 13,3 C 24,4 C 4,3 km/h (1 Bft)